createdAt,value
2023-05-20T00:00:12.997Z,56.60
2023-05-20T00:01:13.013Z,54.53
2023-05-20T00:02:12.978Z,48.50
2023-05-20T00:03:13.020Z,51.73
2023-05-20T00:04:12.989Z,57.62
2023-05-20T00:05:12.955Z,48.72
2023-05-20T00:06:12.972Z,51.85
2023-05-20T00:07:12.944Z,47.15
2023-05-20T00:08:12.932Z,51.84
2023-05-20T00:09:12.936Z,49.53
2023-05-20T00:10:12.939Z,53.55
2023-05-20T00:11:12.932Z,57.48
2023-05-20T00:12:12.902Z,50.16
2023-05-20T00:13:12.889Z,54.79
2023-05-20T00:14:12.900Z,51.93
2023-05-20T00:15:12.939Z,49.15
2023-05-20T00:16:12.925Z,60.84
2023-05-20T00:17:12.863Z,58.92
2023-05-20T00:18:12.888Z,52.56
2023-05-20T00:19:12.880Z,55.64
2023-05-20T00:20:12.863Z,54.46
2023-05-20T00:21:12.834Z,56.70
2023-05-20T00:22:12.819Z,50.17
2023-05-20T00:23:12.820Z,58.48
2023-05-20T00:24:12.832Z,49.80
2023-05-20T00:25:12.817Z,54.37
2023-05-20T00:26:12.793Z,53.40
2023-05-20T00:27:12.781Z,56.50
2023-05-20T00:28:12.774Z,56.28
2023-05-20T00:29:12.792Z,51.62
2023-05-20T00:30:12.765Z,58.03
2023-05-20T00:31:12.745Z,55.53
2023-05-20T00:32:12.808Z,49.30
2023-05-20T00:33:12.823Z,50.14
2023-05-20T00:34:12.756Z,59.44
2023-05-20T00:35:12.713Z,56.77
2023-05-20T00:36:12.709Z,46.59
2023-05-20T00:37:12.702Z,48.59
2023-05-20T00:38:12.695Z,62.84
2023-05-20T00:39:12.728Z,55.71
2023-05-20T00:40:14.228Z,52.63
2023-05-20T00:41:12.676Z,47.88
2023-05-20T00:42:12.651Z,54.68
2023-05-20T00:43:12.673Z,46.48
2023-05-20T00:44:12.663Z,47.29
2023-05-20T00:45:12.637Z,56.17
2023-05-20T00:46:12.656Z,62.29
2023-05-20T00:47:12.622Z,43.90
2023-05-20T00:48:12.719Z,51.84
2023-05-20T00:49:12.606Z,55.16
2023-05-20T00:50:12.588Z,60.49
2023-05-20T00:51:12.584Z,61.68
2023-05-20T00:52:12.580Z,54.02
2023-05-20T00:53:12.594Z,53.82
2023-05-20T00:54:12.556Z,52.98
2023-05-20T00:55:12.560Z,62.07
2023-05-20T00:56:12.546Z,53.21
2023-05-20T00:57:12.576Z,47.48
2023-05-20T00:58:12.568Z,51.60
2023-05-20T00:59:12.513Z,55.04
2023-05-20T01:00:12.506Z,51.93
2023-05-20T01:01:12.549Z,55.32
2023-05-20T01:02:12.539Z,47.02
2023-05-20T01:03:12.602Z,51.24
2023-05-20T01:04:12.481Z,53.22
2023-05-20T01:05:12.468Z,49.47
2023-05-20T01:06:12.462Z,50.88
2023-05-20T01:07:12.484Z,48.66
2023-05-20T01:08:12.454Z,47.43
2023-05-20T01:09:12.441Z,55.27
2023-05-20T01:10:12.433Z,53.56
2023-05-20T01:11:12.426Z,47.68
2023-05-20T01:12:12.437Z,60.44
2023-05-20T01:13:12.420Z,52.66
2023-05-20T01:14:12.391Z,53.19
2023-05-20T01:15:12.396Z,55.44
2023-05-20T01:16:12.488Z,57.28
2023-05-20T01:17:12.397Z,57.05
2023-05-20T01:18:12.412Z,54.54
2023-05-20T01:19:12.370Z,45.43
2023-05-20T01:20:12.355Z,52.46
2023-05-20T01:21:12.384Z,46.15
2023-05-20T01:22:12.335Z,43.57
2023-05-20T01:23:12.336Z,53.06
2023-05-20T01:24:12.342Z,63.64
2023-05-20T01:25:12.318Z,66.20
2023-05-20T01:26:12.333Z,54.25
2023-05-20T01:27:12.291Z,48.12
2023-05-20T01:28:12.297Z,46.67
2023-05-20T01:29:12.285Z,46.65
2023-05-20T01:30:12.268Z,43.17
2023-05-20T01:31:12.300Z,46.85
2023-05-20T01:32:12.257Z,57.28
2023-05-20T01:33:12.301Z,60.62
2023-05-20T01:34:13.239Z,48.79
2023-05-20T01:35:12.258Z,53.16
2023-05-20T01:36:12.241Z,61.97
2023-05-20T01:37:12.233Z,59.60
2023-05-20T01:38:12.209Z,46.89
2023-05-20T01:39:12.202Z,49.86
2023-05-20T01:40:12.243Z,51.14
2023-05-20T01:41:12.189Z,62.68
2023-05-20T01:42:12.172Z,52.59
2023-05-20T01:43:12.161Z,50.91
2023-05-20T01:44:12.166Z,50.07
2023-05-20T01:45:12.191Z,43.83
2023-05-20T01:46:12.197Z,42.76
2023-05-20T01:47:12.139Z,42.72
2023-05-20T01:48:12.199Z,53.37
2023-05-20T01:49:12.120Z,54.98
2023-05-20T01:50:12.186Z,55.11
2023-05-20T01:51:12.104Z,54.46
2023-05-20T01:52:12.102Z,62.33
2023-05-20T01:53:12.092Z,44.35
2023-05-20T01:54:12.106Z,45.73
2023-05-20T01:55:12.108Z,53.80
2023-05-20T01:56:12.078Z,61.89
2023-05-20T01:57:12.062Z,58.95
2023-05-20T01:58:12.068Z,49.01
2023-05-20T01:59:12.083Z,48.76
2023-05-20T02:00:12.046Z,49.87
2023-05-20T02:01:12.038Z,57.25
2023-05-20T02:02:12.055Z,57.28
2023-05-20T02:03:12.101Z,42.88
2023-05-20T02:04:12.045Z,43.18
2023-05-20T02:05:12.003Z,44.62
2023-05-20T02:06:12.016Z,56.98
2023-05-20T02:07:11.990Z,47.05
2023-05-20T02:08:12.028Z,58.30
2023-05-20T02:09:11.966Z,54.75
2023-05-20T02:10:11.964Z,43.78
2023-05-20T02:11:11.949Z,46.00
2023-05-20T02:12:11.943Z,52.50
2023-05-20T02:13:11.960Z,61.83
2023-05-20T02:14:11.930Z,43.73
2023-05-20T02:15:11.923Z,43.91
2023-05-20T02:16:11.939Z,43.57
2023-05-20T02:17:11.937Z,47.06
2023-05-20T02:18:11.998Z,44.28
2023-05-20T02:19:11.926Z,56.35
2023-05-20T02:20:11.917Z,48.89
2023-05-20T02:21:11.878Z,42.65
2023-05-20T02:22:11.922Z,43.97
2023-05-20T02:23:11.865Z,49.06
2023-05-20T02:24:11.899Z,45.45
2023-05-20T02:25:11.851Z,43.18
2023-05-20T02:26:11.850Z,47.19
2023-05-20T02:27:11.883Z,47.21
2023-05-20T02:28:11.825Z,44.36
2023-05-20T02:29:11.817Z,45.14
2023-05-20T02:30:11.822Z,52.62
2023-05-20T02:31:11.825Z,49.09
2023-05-20T02:32:11.820Z,48.90
2023-05-20T02:33:11.848Z,48.03
2023-05-20T02:34:11.802Z,52.60
2023-05-20T02:35:11.767Z,49.49
2023-05-20T02:36:11.796Z,45.86
2023-05-20T02:37:11.763Z,45.13
2023-05-20T02:38:11.762Z,60.01
2023-05-20T02:39:11.746Z,49.58
2023-05-20T02:40:12.738Z,47.64
2023-05-20T02:41:11.752Z,52.16
2023-05-20T02:42:11.723Z,48.18
2023-05-20T02:43:11.720Z,43.63
2023-05-20T02:44:11.708Z,52.55
2023-05-20T02:45:11.696Z,54.24
2023-05-20T02:46:11.754Z,55.95
2023-05-20T02:47:11.684Z,48.84
2023-05-20T02:48:11.674Z,59.12
2023-05-20T02:49:11.733Z,62.63
2023-05-20T02:50:11.677Z,55.81
2023-05-20T02:51:11.683Z,46.73
2023-05-20T02:52:11.643Z,53.87
2023-05-20T02:53:11.630Z,55.28
2023-05-20T02:54:11.624Z,57.00
2023-05-20T02:55:12.650Z,56.80
2023-05-20T02:56:11.605Z,52.44
2023-05-20T02:57:11.605Z,51.08
2023-05-20T02:58:11.600Z,52.89
2023-05-20T02:59:11.582Z,48.31
2023-05-20T03:00:11.600Z,50.30
2023-05-20T03:01:11.589Z,57.27
2023-05-20T03:02:11.564Z,60.13
2023-05-20T03:03:11.559Z,51.64
2023-05-20T03:04:11.650Z,54.22
2023-05-20T03:05:11.571Z,54.74
2023-05-20T03:06:11.525Z,46.12
2023-05-20T03:07:11.521Z,55.83
2023-05-20T03:08:11.509Z,61.29
2023-05-20T03:09:11.526Z,56.54
2023-05-20T03:10:11.538Z,50.10
2023-05-20T03:11:11.496Z,55.84
2023-05-20T03:12:11.479Z,45.27
2023-05-20T03:13:11.592Z,56.06
2023-05-20T03:14:11.510Z,56.36
2023-05-20T03:15:11.461Z,54.85
2023-05-20T03:16:11.462Z,47.60
2023-05-20T03:17:11.461Z,57.79
2023-05-20T03:18:11.433Z,66.86
2023-05-20T03:19:11.474Z,58.50
2023-05-20T03:20:11.424Z,48.85
2023-05-20T03:21:11.423Z,45.44
2023-05-20T03:22:11.398Z,51.70
2023-05-20T03:23:11.405Z,58.87
2023-05-20T03:24:12.419Z,53.23
2023-05-20T03:25:11.376Z,51.27
2023-05-20T03:26:11.386Z,61.58
2023-05-20T03:27:11.368Z,57.24
2023-05-20T03:28:11.386Z,56.57
2023-05-20T03:29:11.347Z,57.67
2023-05-20T03:30:11.340Z,55.73
2023-05-20T03:31:11.364Z,57.35
2023-05-20T03:32:11.323Z,59.09
2023-05-20T03:33:11.339Z,56.95
2023-05-20T03:34:11.318Z,49.07
2023-05-20T03:35:11.301Z,56.36
2023-05-20T03:36:11.292Z,58.58
2023-05-20T03:37:11.314Z,56.52
2023-05-20T03:38:11.308Z,57.00
2023-05-20T03:39:11.268Z,56.00
2023-05-20T03:40:11.291Z,55.85
2023-05-20T03:41:11.247Z,56.62
2023-05-20T03:42:11.266Z,52.74
2023-05-20T03:43:11.234Z,57.24
2023-05-20T03:44:11.229Z,51.69
2023-05-20T03:45:11.218Z,52.36
2023-05-20T03:46:11.227Z,55.38
2023-05-20T03:47:11.225Z,53.63
2023-05-20T03:48:11.195Z,58.88
2023-05-20T03:49:11.203Z,62.58
2023-05-20T03:50:11.178Z,57.06
2023-05-20T03:51:11.187Z,58.49
2023-05-20T03:52:11.183Z,57.58
2023-05-20T03:53:11.152Z,52.77
2023-05-20T03:54:11.146Z,55.24
2023-05-20T03:55:11.140Z,57.12
2023-05-20T03:56:11.172Z,53.37
2023-05-20T03:57:11.115Z,54.56
2023-05-20T03:58:11.106Z,53.06
2023-05-20T03:59:11.107Z,64.33
2023-05-20T04:00:11.094Z,51.39
2023-05-20T04:01:11.111Z,55.33
2023-05-20T04:02:11.089Z,56.68
2023-05-20T04:03:12.168Z,59.58
2023-05-20T04:04:11.134Z,59.95
2023-05-20T04:05:11.080Z,56.36
2023-05-20T04:06:11.075Z,53.14
2023-05-20T04:07:11.056Z,59.01
2023-05-20T04:08:11.037Z,56.25
2023-05-20T04:09:11.024Z,49.91
2023-05-20T04:10:11.043Z,54.73
2023-05-20T04:11:11.016Z,56.63
2023-05-20T04:12:11.008Z,49.30
2023-05-20T04:13:11.003Z,59.56
2023-05-20T04:14:10.999Z,53.91
2023-05-20T04:15:11.000Z,51.73
2023-05-20T04:16:10.988Z,62.07
2023-05-20T04:17:10.963Z,55.95
2023-05-20T04:18:10.991Z,62.54
2023-05-20T04:19:11.005Z,55.72
2023-05-20T04:20:10.978Z,60.54
2023-05-20T04:21:10.932Z,59.57
2023-05-20T04:22:10.924Z,53.64
2023-05-20T04:23:10.916Z,57.84
2023-05-20T04:24:10.936Z,61.74
2023-05-20T04:25:10.909Z,54.88
2023-05-20T04:26:10.907Z,55.92
2023-05-20T04:27:10.886Z,60.09
2023-05-20T04:28:10.893Z,58.76
2023-05-20T04:29:10.897Z,62.98
2023-05-20T04:30:10.859Z,60.10
2023-05-20T04:31:11.857Z,63.94
2023-05-20T04:32:11.065Z,59.69
2023-05-20T04:33:10.914Z,57.33
2023-05-20T04:34:10.858Z,52.25
2023-05-20T04:35:10.821Z,54.46
2023-05-20T04:36:10.817Z,52.85
2023-05-20T04:37:10.816Z,61.67
2023-05-20T04:38:10.826Z,64.79
2023-05-20T04:39:10.789Z,56.80
2023-05-20T04:40:10.781Z,54.12
2023-05-20T04:41:10.788Z,59.71
2023-05-20T04:42:10.775Z,66.65
2023-05-20T04:43:10.784Z,60.14
2023-05-20T04:44:10.752Z,59.54
2023-05-20T04:45:10.791Z,65.40
2023-05-20T04:46:10.786Z,55.07
2023-05-20T04:47:10.734Z,52.58
2023-05-20T04:48:10.859Z,50.58
2023-05-20T04:49:10.726Z,55.13
2023-05-20T04:50:10.697Z,57.23
2023-05-20T04:51:11.707Z,58.31
2023-05-20T04:52:10.728Z,63.39
2023-05-20T04:53:10.711Z,62.28
2023-05-20T04:54:10.676Z,59.95
2023-05-20T04:55:10.738Z,58.00
2023-05-20T04:56:10.668Z,65.24
2023-05-20T04:57:10.684Z,60.40
2023-05-20T04:58:10.660Z,56.69
2023-05-20T04:59:10.640Z,62.97
2023-05-20T05:00:10.630Z,56.54
2023-05-20T05:01:10.651Z,64.33
2023-05-20T05:02:10.643Z,54.91
2023-05-20T05:03:10.634Z,62.18
2023-05-20T05:04:10.693Z,57.94
2023-05-20T05:05:10.606Z,57.24
2023-05-20T05:06:10.611Z,56.32
2023-05-20T05:07:10.604Z,54.55
2023-05-20T05:08:10.570Z,59.25
2023-05-20T05:09:10.575Z,58.00
2023-05-20T05:10:10.604Z,57.02
2023-05-20T05:11:10.586Z,60.87
2023-05-20T05:12:10.554Z,58.60
2023-05-20T05:13:10.549Z,57.48
2023-05-20T05:14:10.531Z,61.43
2023-05-20T05:15:10.533Z,57.38
2023-05-20T05:16:10.559Z,59.82
2023-05-20T05:17:10.509Z,58.14
2023-05-20T05:18:10.542Z,61.83
2023-05-20T05:19:10.647Z,57.40
2023-05-20T05:20:10.523Z,58.08
2023-05-20T05:21:10.501Z,66.12
2023-05-20T05:22:10.471Z,59.14
2023-05-20T05:23:10.457Z,55.46
2023-05-20T05:24:10.456Z,63.88
2023-05-20T05:25:10.475Z,61.21
2023-05-20T05:26:10.454Z,58.87
2023-05-20T05:27:10.436Z,56.50
2023-05-20T05:28:10.426Z,56.56
2023-05-20T05:29:11.790Z,65.63
2023-05-20T05:30:11.435Z,54.67
2023-05-20T05:31:10.402Z,59.03
2023-05-20T05:32:10.462Z,64.36
2023-05-20T05:33:10.427Z,60.40
2023-05-20T05:34:10.374Z,62.82
2023-05-20T05:35:10.397Z,60.61
2023-05-20T05:36:10.362Z,58.55
2023-05-20T05:37:10.359Z,60.71
2023-05-20T05:38:10.345Z,63.64
2023-05-20T05:39:10.363Z,58.54
2023-05-20T05:40:10.352Z,64.10
2023-05-20T05:41:10.320Z,59.87
2023-05-20T05:42:10.310Z,58.64
2023-05-20T05:43:10.301Z,62.16
2023-05-20T05:44:10.326Z,67.28
2023-05-20T05:45:10.285Z,62.43
2023-05-20T05:46:10.280Z,56.93
2023-05-20T05:47:10.346Z,57.09
2023-05-20T05:48:10.289Z,59.16
2023-05-20T05:49:10.278Z,61.53
2023-05-20T05:50:10.252Z,53.40
2023-05-20T05:51:10.237Z,60.64
2023-05-20T05:52:10.233Z,58.74
2023-05-20T05:53:10.248Z,60.11
2023-05-20T05:54:10.248Z,59.08
2023-05-20T05:55:10.200Z,61.28
2023-05-20T05:56:10.194Z,65.31
2023-05-20T05:57:10.189Z,60.11
2023-05-20T05:58:10.241Z,59.16
2023-05-20T05:59:10.172Z,57.48
2023-05-20T06:00:10.164Z,55.70
2023-05-20T06:01:10.186Z,61.64
2023-05-20T06:02:10.183Z,61.64
2023-05-20T06:03:10.257Z,59.67
2023-05-20T06:04:10.175Z,59.84
2023-05-20T06:05:10.129Z,60.43
2023-05-20T06:06:10.120Z,61.74
2023-05-20T06:07:10.136Z,57.61
2023-05-20T06:08:10.129Z,57.56
2023-05-20T06:09:10.112Z,57.45
2023-05-20T06:10:10.090Z,57.19
2023-05-20T06:11:10.084Z,55.85
2023-05-20T06:12:11.390Z,61.61
2023-05-20T06:13:10.064Z,65.66
2023-05-20T06:14:10.064Z,61.84
2023-05-20T06:15:10.062Z,58.49
2023-05-20T06:16:10.067Z,60.23
2023-05-20T06:17:10.061Z,56.20
2023-05-20T06:18:10.083Z,62.25
2023-05-20T06:19:10.060Z,58.48
2023-05-20T06:20:10.030Z,59.44
2023-05-20T06:21:10.034Z,63.32
2023-05-20T06:22:10.028Z,60.39
2023-05-20T06:23:10.011Z,57.87
2023-05-20T06:24:09.988Z,60.01
2023-05-20T06:25:09.976Z,60.08
2023-05-20T06:26:09.986Z,54.47
2023-05-20T06:27:09.955Z,61.67
2023-05-20T06:28:09.952Z,65.83
2023-05-20T06:29:09.946Z,64.35
2023-05-20T06:30:09.934Z,61.51
2023-05-20T06:31:09.988Z,58.64
2023-05-20T06:32:09.930Z,60.59
2023-05-20T06:33:09.911Z,61.42
2023-05-20T06:34:09.943Z,64.89
2023-05-20T06:35:09.914Z,59.46
2023-05-20T06:36:09.913Z,61.02
2023-05-20T06:37:09.882Z,57.80
2023-05-20T06:38:09.900Z,62.30
2023-05-20T06:39:09.862Z,64.22
2023-05-20T06:40:09.886Z,62.93
2023-05-20T06:41:09.853Z,61.93
2023-05-20T06:42:09.845Z,61.20
2023-05-20T06:43:09.833Z,61.11
2023-05-20T06:44:09.824Z,63.31
2023-05-20T06:45:09.845Z,62.39
2023-05-20T06:46:09.833Z,63.29
2023-05-20T06:47:09.798Z,63.15
2023-05-20T06:48:09.838Z,57.47
2023-05-20T06:49:09.809Z,62.80
2023-05-20T06:50:09.814Z,57.73
2023-05-20T06:51:09.796Z,60.37
2023-05-20T06:52:09.753Z,62.65
2023-05-20T06:53:09.741Z,61.47
2023-05-20T06:54:10.770Z,60.20
2023-05-20T06:55:09.745Z,62.85
2023-05-20T06:56:09.728Z,62.52
2023-05-20T06:57:09.732Z,63.81
2023-05-20T06:58:09.720Z,57.28
2023-05-20T06:59:09.734Z,59.83
2023-05-20T07:00:09.704Z,58.81
2023-05-20T07:01:09.702Z,63.13
2023-05-20T07:02:09.768Z,62.13
2023-05-20T07:03:09.804Z,62.71
2023-05-20T07:04:09.700Z,61.49
2023-05-20T07:05:09.659Z,58.25
2023-05-20T07:06:09.650Z,63.07
2023-05-20T07:07:09.645Z,60.07
2023-05-20T07:08:09.682Z,63.77
2023-05-20T07:09:09.629Z,62.96
2023-05-20T07:10:09.616Z,59.95
2023-05-20T07:11:09.612Z,60.30
2023-05-20T07:12:09.601Z,61.26
2023-05-20T07:13:09.615Z,62.55
2023-05-20T07:14:09.585Z,66.86
2023-05-20T07:15:09.575Z,63.81
2023-05-20T07:16:09.600Z,63.67
2023-05-20T07:17:09.584Z,63.92
2023-05-20T07:18:09.689Z,65.30
2023-05-20T07:19:09.548Z,59.21
2023-05-20T07:20:09.536Z,60.85
2023-05-20T07:21:09.528Z,61.65
2023-05-20T07:22:09.543Z,58.48
2023-05-20T07:23:09.507Z,63.98
2023-05-20T07:24:09.511Z,61.37
2023-05-20T07:25:09.495Z,60.73
2023-05-20T07:26:09.487Z,61.96
2023-05-20T07:27:09.504Z,61.52
2023-05-20T07:28:09.473Z,59.75
2023-05-20T07:29:09.467Z,63.03
2023-05-20T07:30:09.462Z,63.14
2023-05-20T07:31:09.510Z,64.60
2023-05-20T07:32:09.606Z,63.42
2023-05-20T07:33:09.447Z,64.00
2023-05-20T07:34:09.433Z,65.89
2023-05-20T07:35:09.417Z,62.89
2023-05-20T07:36:11.065Z,61.44
2023-05-20T07:37:10.402Z,65.91
2023-05-20T07:38:09.398Z,64.39
2023-05-20T07:39:13.480Z,61.21
2023-05-20T07:40:10.395Z,61.52
2023-05-20T07:41:09.407Z,62.32
2023-05-20T07:42:09.369Z,62.86
2023-05-20T07:43:09.389Z,62.53
2023-05-20T07:44:09.350Z,65.32
2023-05-20T07:45:09.372Z,63.88
2023-05-20T07:46:09.426Z,63.47
2023-05-20T07:47:09.341Z,63.47
2023-05-20T07:48:09.329Z,60.74
2023-05-20T07:49:09.305Z,64.99
2023-05-20T07:50:09.336Z,65.85
2023-05-20T07:51:09.299Z,62.65
2023-05-20T07:52:09.299Z,63.56
2023-05-20T07:53:09.282Z,63.45
2023-05-20T07:54:09.278Z,63.57
2023-05-20T07:55:09.297Z,62.83
2023-05-20T07:56:09.267Z,63.23
2023-05-20T07:57:09.251Z,66.03
2023-05-20T07:58:09.239Z,62.75
2023-05-20T07:59:09.231Z,62.33
2023-05-20T08:00:09.247Z,60.72
2023-05-20T08:01:09.222Z,62.09
2023-05-20T08:02:09.258Z,67.14
2023-05-20T08:03:09.402Z,63.39
2023-05-20T08:04:09.278Z,62.37
2023-05-20T08:05:09.223Z,63.82
2023-05-20T08:06:09.177Z,64.37
2023-05-20T08:07:09.185Z,62.18
2023-05-20T08:08:09.164Z,65.29
2023-05-20T08:09:09.194Z,64.43
2023-05-20T08:10:09.157Z,60.74
2023-05-20T08:11:09.146Z,64.17
2023-05-20T08:12:09.143Z,62.64
2023-05-20T08:13:09.128Z,62.73
2023-05-20T08:14:09.142Z,58.14
2023-05-20T08:15:09.112Z,64.41
2023-05-20T08:16:09.104Z,65.63
2023-05-20T08:17:09.203Z,62.91
2023-05-20T08:18:09.169Z,61.61
2023-05-20T08:19:09.129Z,60.91
2023-05-20T08:20:09.073Z,63.97
2023-05-20T08:21:09.073Z,65.23
2023-05-20T08:22:09.056Z,61.85
2023-05-20T08:23:09.078Z,61.40
2023-05-20T08:24:09.041Z,63.14
2023-05-20T08:25:09.034Z,62.76
2023-05-20T08:26:09.017Z,60.97
2023-05-20T08:27:09.011Z,61.58
2023-05-20T08:28:09.035Z,63.17
2023-05-20T08:29:08.999Z,65.33
2023-05-20T08:30:08.993Z,62.17
2023-05-20T08:31:09.018Z,62.12
2023-05-20T08:32:08.997Z,64.36
2023-05-20T08:33:09.119Z,64.01
2023-05-20T08:34:08.960Z,64.28
2023-05-20T08:35:08.952Z,64.33
2023-05-20T08:36:08.961Z,63.23
2023-05-20T08:37:08.960Z,63.91
2023-05-20T08:38:08.936Z,63.21
2023-05-20T08:39:08.919Z,62.63
2023-05-20T08:40:08.951Z,63.12
2023-05-20T08:41:08.906Z,63.32
2023-05-20T08:42:08.924Z,63.70
2023-05-20T08:43:08.887Z,65.05
2023-05-20T08:44:08.885Z,63.00
2023-05-20T08:45:08.898Z,62.92
2023-05-20T08:46:08.897Z,63.80
2023-05-20T08:47:08.888Z,66.58
2023-05-20T08:48:08.889Z,65.28
2023-05-20T08:49:08.849Z,62.18
2023-05-20T08:50:08.838Z,62.60
2023-05-20T08:51:08.855Z,60.78
2023-05-20T08:52:08.820Z,60.46
2023-05-20T08:53:08.816Z,64.31
2023-05-20T08:54:08.834Z,61.61
2023-05-20T08:55:08.801Z,61.95
2023-05-20T08:56:08.825Z,66.59
2023-05-20T08:57:08.788Z,64.34
2023-05-20T08:58:08.782Z,65.10
2023-05-20T08:59:08.778Z,61.71
2023-05-20T09:00:08.811Z,61.89
2023-05-20T09:01:08.788Z,63.53
2023-05-20T09:02:08.857Z,65.20
2023-05-20T09:03:08.756Z,66.15
2023-05-20T09:04:08.727Z,64.88
2023-05-20T09:05:08.807Z,64.39
2023-05-20T09:06:08.750Z,60.68
2023-05-20T09:07:08.719Z,61.68
2023-05-20T09:08:08.716Z,62.32
2023-05-20T09:09:08.697Z,64.76
2023-05-20T09:10:08.710Z,61.56
2023-05-20T09:11:08.676Z,64.21
2023-05-20T09:12:08.666Z,63.71
2023-05-20T09:13:08.659Z,64.17
2023-05-20T09:14:08.663Z,60.36
2023-05-20T09:15:08.671Z,64.95
2023-05-20T09:16:08.717Z,62.04
2023-05-20T09:17:08.626Z,61.94
2023-05-20T09:18:08.745Z,62.11
2023-05-20T09:19:08.674Z,63.68
2023-05-20T09:20:08.631Z,63.86
2023-05-20T09:21:08.595Z,62.92
2023-05-20T09:22:08.588Z,65.43
2023-05-20T09:23:08.575Z,66.54
2023-05-20T09:24:08.596Z,64.44
2023-05-20T09:25:08.662Z,59.01
2023-05-20T09:26:08.602Z,61.78
2023-05-20T09:27:08.566Z,64.56
2023-05-20T09:28:08.611Z,60.98
2023-05-20T09:29:08.687Z,62.24
2023-05-20T09:30:08.525Z,62.02
2023-05-20T09:31:08.608Z,63.53
2023-05-20T09:32:08.669Z,64.39
2023-05-20T09:33:08.539Z,64.82
2023-05-20T09:34:08.523Z,64.08
2023-05-20T09:35:08.484Z,62.28
2023-05-20T09:36:08.478Z,64.82
2023-05-20T09:37:08.469Z,62.43
2023-05-20T09:38:08.519Z,61.82
2023-05-20T09:39:08.485Z,63.76
2023-05-20T09:40:08.456Z,65.49
2023-05-20T09:41:08.451Z,65.65
2023-05-20T09:42:08.435Z,69.99
2023-05-20T09:43:08.454Z,64.45
2023-05-20T09:44:08.458Z,65.35
2023-05-20T09:45:08.408Z,64.18
2023-05-20T09:46:08.500Z,64.31
2023-05-20T09:47:08.679Z,64.05
2023-05-20T09:48:09.463Z,65.92
2023-05-20T09:49:08.380Z,63.83
2023-05-20T09:50:08.424Z,64.43
2023-05-20T09:51:08.438Z,61.49
2023-05-20T09:52:08.356Z,62.73
2023-05-20T09:53:08.373Z,62.69
2023-05-20T09:54:08.413Z,63.82
2023-05-20T09:55:08.348Z,63.81
2023-05-20T09:56:08.335Z,59.59
2023-05-20T09:57:08.353Z,64.40
2023-05-20T09:58:08.348Z,61.29
2023-05-20T09:59:08.303Z,63.52
2023-05-20T10:00:08.293Z,62.77
2023-05-20T10:01:08.357Z,63.05
2023-05-20T10:02:08.325Z,66.60
2023-05-20T10:03:08.394Z,62.64
2023-05-20T10:04:08.268Z,66.93
2023-05-20T10:05:08.267Z,64.91
2023-05-20T10:06:08.256Z,62.21
2023-05-20T10:07:08.281Z,67.36
2023-05-20T10:08:08.245Z,63.04
2023-05-20T10:09:08.236Z,65.03
2023-05-20T10:10:08.219Z,66.62
2023-05-20T10:11:08.242Z,63.87
2023-05-20T10:12:08.234Z,64.63
2023-05-20T10:13:08.198Z,62.33
2023-05-20T10:14:08.189Z,60.46
2023-05-20T10:15:08.173Z,61.76
2023-05-20T10:16:08.272Z,61.47
2023-05-20T10:17:08.164Z,65.60
2023-05-20T10:18:08.161Z,61.40
2023-05-20T10:19:08.188Z,62.32
2023-05-20T10:20:08.140Z,63.10
2023-05-20T10:21:08.165Z,61.99
2023-05-20T10:22:08.128Z,60.98
2023-05-20T10:23:08.119Z,62.83
2023-05-20T10:24:08.171Z,66.00
2023-05-20T10:25:08.094Z,64.24
2023-05-20T10:26:09.123Z,64.44
2023-05-20T10:27:08.105Z,65.04
2023-05-20T10:28:08.135Z,66.80
2023-05-20T10:29:09.291Z,61.40
2023-05-20T10:30:08.099Z,63.08
2023-05-20T10:31:08.080Z,61.00
2023-05-20T10:32:08.099Z,63.48
2023-05-20T10:33:08.143Z,66.11
2023-05-20T10:34:08.074Z,62.57
2023-05-20T10:35:08.043Z,66.17
2023-05-20T10:36:08.053Z,61.29
2023-05-20T10:37:08.008Z,65.72
2023-05-20T10:38:08.008Z,62.79
2023-05-20T10:39:07.993Z,59.11
2023-05-20T10:40:08.022Z,63.72
2023-05-20T10:41:07.978Z,68.60
2023-05-20T10:42:07.961Z,64.43
2023-05-20T10:43:07.954Z,63.18
2023-05-20T10:44:07.990Z,64.35
2023-05-20T10:45:08.002Z,63.96
2023-05-20T10:46:13.764Z,63.29
2023-05-20T10:47:24.751Z,63.90
2023-05-20T10:48:09.974Z,63.50
2023-05-20T10:49:08.108Z,64.53
2023-05-20T10:50:07.905Z,63.61
2023-05-20T10:51:07.896Z,67.42
2023-05-20T10:52:07.880Z,65.37
2023-05-20T10:53:13.260Z,64.05
2023-05-20T10:54:08.904Z,63.23
2023-05-20T10:55:07.883Z,61.42
2023-05-20T10:56:07.853Z,64.43
2023-05-20T10:57:07.852Z,60.19
2023-05-20T10:58:07.855Z,63.48
2023-05-20T10:59:07.857Z,64.06
2023-05-20T11:00:07.837Z,63.44
2023-05-20T11:01:07.834Z,63.35
2023-05-20T11:02:07.816Z,63.76
2023-05-20T11:03:07.926Z,63.38
2023-05-20T11:04:08.005Z,59.46
2023-05-20T11:05:07.786Z,62.81
2023-05-20T11:06:07.777Z,63.94
2023-05-20T11:07:07.773Z,63.41
2023-05-20T11:08:16.858Z,64.01
2023-05-20T11:09:09.779Z,64.16
2023-05-20T11:10:07.739Z,61.46
2023-05-20T11:11:07.753Z,65.66
2023-05-20T11:12:07.759Z,61.69
2023-05-20T11:13:07.883Z,64.28
2023-05-20T11:14:07.711Z,63.48
2023-05-20T11:15:07.708Z,63.87
2023-05-20T11:16:07.769Z,65.16
2023-05-20T11:17:07.756Z,62.94
2023-05-20T11:18:07.825Z,65.44
2023-05-20T11:19:07.766Z,64.30
2023-05-20T11:20:07.673Z,63.10
2023-05-20T11:21:07.666Z,59.64
2023-05-20T11:22:07.679Z,65.18
2023-05-20T11:23:07.682Z,60.33
2023-05-20T11:24:07.652Z,62.52
2023-05-20T11:25:07.641Z,62.88
2023-05-20T11:26:07.629Z,61.76
2023-05-20T11:27:07.647Z,63.53
2023-05-20T11:28:07.617Z,62.40
2023-05-20T11:29:07.603Z,62.42
2023-05-20T11:30:07.593Z,65.43
2023-05-20T11:31:07.590Z,65.10
2023-05-20T11:32:07.690Z,61.73
2023-05-20T11:33:07.617Z,63.76
2023-05-20T11:34:07.569Z,66.80
2023-05-20T11:35:07.573Z,64.98
2023-05-20T11:36:13.495Z,62.58
2023-05-20T11:37:09.616Z,64.74
2023-05-20T11:38:07.525Z,65.57
2023-05-20T11:39:07.524Z,65.99
2023-05-20T11:40:07.510Z,65.25
2023-05-20T11:41:07.539Z,63.81
2023-05-20T11:42:07.519Z,64.97
2023-05-20T11:43:07.495Z,62.91
2023-05-20T11:44:07.484Z,65.37
2023-05-20T11:45:07.490Z,65.37
2023-05-20T11:46:07.504Z,63.76
2023-05-20T11:47:07.454Z,63.46
2023-05-20T11:48:07.573Z,63.57
2023-05-20T11:49:07.437Z,61.84
2023-05-20T11:50:07.437Z,62.78
2023-05-20T11:51:07.447Z,65.55
2023-05-20T11:52:07.434Z,66.03
2023-05-20T11:53:07.411Z,67.67
2023-05-20T11:54:07.405Z,64.44
2023-05-20T11:55:07.437Z,64.68
2023-05-20T11:56:07.421Z,61.96
2023-05-20T11:57:07.413Z,64.62
2023-05-20T11:58:07.386Z,61.65
2023-05-20T11:59:07.370Z,60.28
2023-05-20T12:00:07.396Z,69.73
2023-05-20T12:01:21.036Z,64.18
2023-05-20T12:02:09.396Z,64.41
2023-05-20T12:03:07.399Z,65.39
2023-05-20T12:04:07.480Z,62.36
2023-05-20T12:05:07.349Z,63.58
2023-05-20T12:06:07.308Z,61.60
2023-05-20T12:07:07.312Z,63.77
2023-05-20T12:08:07.286Z,61.41
2023-05-20T12:09:08.312Z,60.43
2023-05-20T12:10:07.302Z,61.37
2023-05-20T12:11:07.282Z,62.91
2023-05-20T12:12:07.289Z,63.97
2023-05-20T12:13:07.257Z,64.49
2023-05-20T12:14:07.301Z,62.73
2023-05-20T12:15:07.236Z,65.84
2023-05-20T12:16:07.258Z,63.02
2023-05-20T12:17:07.222Z,61.18
2023-05-20T12:18:07.263Z,62.06
2023-05-20T12:19:07.250Z,63.34
2023-05-20T12:20:07.209Z,65.67
2023-05-20T12:21:07.192Z,61.07
2023-05-20T12:22:07.195Z,64.72
2023-05-20T12:23:07.191Z,64.79
2023-05-20T12:24:07.261Z,64.47
2023-05-20T12:25:07.160Z,63.54
2023-05-20T12:26:07.154Z,60.91
2023-05-20T12:27:07.149Z,61.40
2023-05-20T12:28:07.165Z,65.32
2023-05-20T12:29:07.189Z,62.95
2023-05-20T12:30:07.130Z,63.69
2023-05-20T12:31:07.171Z,64.30
2023-05-20T12:32:07.316Z,64.32
2023-05-20T12:33:07.146Z,61.81
2023-05-20T12:34:07.089Z,64.84
2023-05-20T12:35:07.077Z,62.96
2023-05-20T12:36:08.073Z,62.45
2023-05-20T12:37:07.066Z,63.39
2023-05-20T12:38:07.090Z,62.29
2023-05-20T12:39:07.047Z,64.58
2023-05-20T12:40:07.049Z,63.84
2023-05-20T12:41:07.033Z,61.80
2023-05-20T12:42:07.051Z,63.01
2023-05-20T12:43:07.044Z,61.92
2023-05-20T12:44:07.051Z,62.42
2023-05-20T12:45:06.998Z,64.53
2023-05-20T12:46:06.989Z,61.90
2023-05-20T12:47:07.048Z,65.93
2023-05-20T12:48:07.040Z,63.71
2023-05-20T12:49:06.981Z,63.40
2023-05-20T12:50:06.961Z,62.60
2023-05-20T12:51:06.953Z,62.79
2023-05-20T12:52:15.353Z,65.09